sensor_id;sensor_type;location;lat;lon;timestamp;temperature;humidity
65836;SHT30;52595;51.608;7.216;2023-07-20T00:01:19;16.52;93.32
65836;SHT30;52595;51.608;7.216;2023-07-20T00:03:45;16.52;93.23
65836;SHT30;52595;51.608;7.216;2023-07-20T00:06:23;16.52;93.02
65836;SHT30;52595;51.608;7.216;2023-07-20T00:08:53;16.52;92.99
65836;SHT30;52595;51.608;7.216;2023-07-20T00:11:19;16.50;92.81
65836;SHT30;52595;51.608;7.216;2023-07-20T00:13:44;16.59;92.18
65836;SHT30;52595;51.608;7.216;2023-07-20T00:16:10;16.60;92.15
65836;SHT30;52595;51.608;7.216;2023-07-20T00:18:35;16.67;92.09
65836;SHT30;52595;51.608;7.216;2023-07-20T00:21:01;16.65;92.17
65836;SHT30;52595;51.608;7.216;2023-07-20T00:23:27;16.64;92.35
65836;SHT30;52595;51.608;7.216;2023-07-20T00:25:52;16.65;92.07
65836;SHT30;52595;51.608;7.216;2023-07-20T00:28:18;16.60;92.13
65836;SHT30;52595;51.608;7.216;2023-07-20T00:30:43;16.61;92.39
65836;SHT30;52595;51.608;7.216;2023-07-20T00:33:11;16.59;92.44
65836;SHT30;52595;51.608;7.216;2023-07-20T00:35:37;16.52;93.01
65836;SHT30;52595;51.608;7.216;2023-07-20T00:38:03;16.47;93.03
65836;SHT30;52595;51.608;7.216;2023-07-20T00:40:35;16.46;93.10
65836;SHT30;52595;51.608;7.216;2023-07-20T00:43:01;16.44;93.02
65836;SHT30;52595;51.608;7.216;2023-07-20T00:45:27;16.44;93.16
65836;SHT30;52595;51.608;7.216;2023-07-20T00:47:52;16.46;93.17
65836;SHT30;52595;51.608;7.216;2023-07-20T00:50:18;16.42;93.09
65836;SHT30;52595;51.608;7.216;2023-07-20T00:52:44;16.42;93.05
65836;SHT30;52595;51.608;7.216;2023-07-20T00:55:10;16.39;93.00
65836;SHT30;52595;51.608;7.216;2023-07-20T00:57:36;16.40;92.85
65836;SHT30;52595;51.608;7.216;2023-07-20T01:00:02;16.40;92.82
65836;SHT30;52595;51.608;7.216;2023-07-20T01:02:27;16.43;92.44
65836;SHT30;52595;51.608;7.216;2023-07-20T01:04:53;16.44;92.41
65836;SHT30;52595;51.608;7.216;2023-07-20T01:07:34;16.49;92.28
65836;SHT30;52595;51.608;7.216;2023-07-20T01:10:12;16.49;92.18
65836;SHT30;52595;51.608;7.216;2023-07-20T01:12:46;16.47;92.49
65836;SHT30;52595;51.608;7.216;2023-07-20T01:15:12;16.44;92.43
65836;SHT30;52595;51.608;7.216;2023-07-20T01:17:38;16.50;92.11
65836;SHT30;52595;51.608;7.216;2023-07-20T01:20:09;16.50;92.34
65836;SHT30;52595;51.608;7.216;2023-07-20T01:28:53;16.52;92.29
65836;SHT30;52595;51.608;7.216;2023-07-20T01:31:24;16.53;92.39
65836;SHT30;52595;51.608;7.216;2023-07-20T01:33:52;16.50;92.31
65836;SHT30;52595;51.608;7.216;2023-07-20T01:36:19;16.50;92.61
65836;SHT30;52595;51.608;7.216;2023-07-20T01:38:47;16.46;92.60
65836;SHT30;52595;51.608;7.216;2023-07-20T01:41:13;16.44;92.65
65836;SHT30;52595;51.608;7.216;2023-07-20T01:43:39;16.36;93.09
65836;SHT30;52595;51.608;7.216;2023-07-20T01:46:04;16.27;93.45
65836;SHT30;52595;51.608;7.216;2023-07-20T01:48:31;16.17;93.72
65836;SHT30;52595;51.608;7.216;2023-07-20T01:50:56;16.19;93.56
65836;SHT30;52595;51.608;7.216;2023-07-20T01:53:22;16.14;93.50
65836;SHT30;52595;51.608;7.216;2023-07-20T01:55:47;16.17;93.57
65836;SHT30;52595;51.608;7.216;2023-07-20T01:58:13;16.19;93.50
65836;SHT30;52595;51.608;7.216;2023-07-20T02:00:38;16.20;93.55
65836;SHT30;52595;51.608;7.216;2023-07-20T02:03:05;16.22;93.63
65836;SHT30;52595;51.608;7.216;2023-07-20T02:05:30;16.29;93.30
65836;SHT30;52595;51.608;7.216;2023-07-20T02:07:56;16.32;93.28
65836;SHT30;52595;51.608;7.216;2023-07-20T02:10:21;16.33;93.24
65836;SHT30;52595;51.608;7.216;2023-07-20T02:12:47;16.33;93.15
65836;SHT30;52595;51.608;7.216;2023-07-20T02:15:13;16.27;93.68
65836;SHT30;52595;51.608;7.216;2023-07-20T02:17:41;16.17;94.21
65836;SHT30;52595;51.608;7.216;2023-07-20T02:20:08;16.08;94.87
65836;SHT30;52595;51.608;7.216;2023-07-20T02:22:37;15.99;95.46
65836;SHT30;52595;51.608;7.216;2023-07-20T02:25:04;15.96;95.33
65836;SHT30;52595;51.608;7.216;2023-07-20T02:27:30;15.92;95.59
65836;SHT30;52595;51.608;7.216;2023-07-20T02:29:56;15.90;95.84
65836;SHT30;52595;51.608;7.216;2023-07-20T02:32:21;15.93;95.97
65836;SHT30;52595;51.608;7.216;2023-07-20T02:34:50;15.98;95.96
65836;SHT30;52595;51.608;7.216;2023-07-20T02:37:16;15.98;95.69
65836;SHT30;52595;51.608;7.216;2023-07-20T02:39:41;16.05;95.21
65836;SHT30;52595;51.608;7.216;2023-07-20T02:42:07;16.08;95.40
65836;SHT30;52595;51.608;7.216;2023-07-20T02:44:32;16.09;95.29
65836;SHT30;52595;51.608;7.216;2023-07-20T02:46:58;16.10;95.63
65836;SHT30;52595;51.608;7.216;2023-07-20T02:49:23;15.93;96.83
65836;SHT30;52595;51.608;7.216;2023-07-20T02:51:49;15.77;98.87
65836;SHT30;52595;51.608;7.216;2023-07-20T02:54:15;15.68;99.03
65836;SHT30;52595;51.608;7.216;2023-07-20T02:56:40;15.61;99.78
65836;SHT30;52595;51.608;7.216;2023-07-20T02:59:05;15.59;99.55
65836;SHT30;52595;51.608;7.216;2023-07-20T03:01:31;15.58;99.69
65836;SHT30;52595;51.608;7.216;2023-07-20T03:03:56;15.54;99.69
65836;SHT30;52595;51.608;7.216;2023-07-20T03:06:22;15.52;99.76
65836;SHT30;52595;51.608;7.216;2023-07-20T03:08:48;15.48;99.99
65836;SHT30;52595;51.608;7.216;2023-07-20T03:11:17;15.49;99.99
65836;SHT30;52595;51.608;7.216;2023-07-20T03:13:43;15.45;99.99
65836;SHT30;52595;51.608;7.216;2023-07-20T03:16:09;15.41;99.99
65836;SHT30;52595;51.608;7.216;2023-07-20T03:18:39;15.39;99.99
65836;SHT30;52595;51.608;7.216;2023-07-20T03:21:10;15.41;99.99
65836;SHT30;52595;51.608;7.216;2023-07-20T03:23:39;15.34;99.99
65836;SHT30;52595;51.608;7.216;2023-07-20T03:26:05;15.39;99.99
65836;SHT30;52595;51.608;7.216;2023-07-20T03:28:34;15.41;99.99
65836;SHT30;52595;51.608;7.216;2023-07-20T03:30:59;15.35;99.99
65836;SHT30;52595;51.608;7.216;2023-07-20T03:33:26;15.37;99.99
65836;SHT30;52595;51.608;7.216;2023-07-20T03:35:52;15.32;99.99
65836;SHT30;52595;51.608;7.216;2023-07-20T03:38:18;15.37;99.99
65836;SHT30;52595;51.608;7.216;2023-07-20T03:41:09;15.28;99.99
65836;SHT30;52595;51.608;7.216;2023-07-20T03:43:37;15.28;99.99
65836;SHT30;52595;51.608;7.216;2023-07-20T03:46:02;15.24;99.99
65836;SHT30;52595;51.608;7.216;2023-07-20T03:48:32;15.18;99.99
65836;SHT30;52595;51.608;7.216;2023-07-20T03:50:57;15.17;99.99
65836;SHT30;52595;51.608;7.216;2023-07-20T03:53:23;15.17;99.99
65836;SHT30;52595;51.608;7.216;2023-07-20T03:55:51;15.14;99.99
65836;SHT30;52595;51.608;7.216;2023-07-20T03:58:17;15.15;99.99
65836;SHT30;52595;51.608;7.216;2023-07-20T04:00:45;15.11;99.99
65836;SHT30;52595;51.608;7.216;2023-07-20T04:03:10;15.11;99.99
65836;SHT30;52595;51.608;7.216;2023-07-20T04:05:36;15.08;99.99
65836;SHT30;52595;51.608;7.216;2023-07-20T04:08:01;15.04;99.99
65836;SHT30;52595;51.608;7.216;2023-07-20T04:10:27;14.98;99.99
65836;SHT30;52595;51.608;7.216;2023-07-20T04:12:52;15.01;99.99
65836;SHT30;52595;51.608;7.216;2023-07-20T04:15:20;14.87;99.99
65836;SHT30;52595;51.608;7.216;2023-07-20T04:17:46;14.84;99.99
65836;SHT30;52595;51.608;7.216;2023-07-20T04:20:13;14.87;99.99
65836;SHT30;52595;51.608;7.216;2023-07-20T04:22:39;14.81;99.99
65836;SHT30;52595;51.608;7.216;2023-07-20T04:25:04;14.81;99.99
65836;SHT30;52595;51.608;7.216;2023-07-20T04:27:30;14.72;99.99
65836;SHT30;52595;51.608;7.216;2023-07-20T04:29:57;14.64;99.99
65836;SHT30;52595;51.608;7.216;2023-07-20T04:32:22;14.63;99.99
65836;SHT30;52595;51.608;7.216;2023-07-20T04:34:50;14.64;99.99
65836;SHT30;52595;51.608;7.216;2023-07-20T04:37:16;14.67;99.99
65836;SHT30;52595;51.608;7.216;2023-07-20T04:39:41;14.72;99.99
65836;SHT30;52595;51.608;7.216;2023-07-20T04:42:07;14.74;99.99
65836;SHT30;52595;51.608;7.216;2023-07-20T04:44:32;14.72;99.99
65836;SHT30;52595;51.608;7.216;2023-07-20T04:46:57;14.69;99.99
65836;SHT30;52595;51.608;7.216;2023-07-20T04:49:23;14.73;99.99
65836;SHT30;52595;51.608;7.216;2023-07-20T04:51:48;14.69;99.99
65836;SHT30;52595;51.608;7.216;2023-07-20T04:54:13;14.74;99.99
65836;SHT30;52595;51.608;7.216;2023-07-20T04:56:39;14.81;99.99
65836;SHT30;52595;51.608;7.216;2023-07-20T04:59:05;14.90;99.99
65836;SHT30;52595;51.608;7.216;2023-07-20T05:01:30;14.85;99.99
65836;SHT30;52595;51.608;7.216;2023-07-20T05:03:56;14.80;99.99
65836;SHT30;52595;51.608;7.216;2023-07-20T05:06:21;14.80;99.99
65836;SHT30;52595;51.608;7.216;2023-07-20T05:08:47;14.80;99.99
65836;SHT30;52595;51.608;7.216;2023-07-20T05:11:12;14.87;99.99
65836;SHT30;52595;51.608;7.216;2023-07-20T05:13:38;14.95;99.99
65836;SHT30;52595;51.608;7.216;2023-07-20T05:16:03;15.01;99.99
65836;SHT30;52595;51.608;7.216;2023-07-20T05:18:29;15.15;99.99
65836;SHT30;52595;51.608;7.216;2023-07-20T05:20:54;15.01;99.99
65836;SHT30;52595;51.608;7.216;2023-07-20T05:23:20;14.97;99.99
65836;SHT30;52595;51.608;7.216;2023-07-20T05:25:46;14.95;99.99
65836;SHT30;52595;51.608;7.216;2023-07-20T05:28:12;14.90;99.99
65836;SHT30;52595;51.608;7.216;2023-07-20T05:30:37;14.91;99.99
65836;SHT30;52595;51.608;7.216;2023-07-20T05:33:02;15.08;99.99
65836;SHT30;52595;51.608;7.216;2023-07-20T05:35:28;15.00;99.99
65836;SHT30;52595;51.608;7.216;2023-07-20T05:37:54;14.97;99.99
65836;SHT30;52595;51.608;7.216;2023-07-20T05:40:19;14.83;99.22
65836;SHT30;52595;51.608;7.216;2023-07-20T05:42:46;14.79;99.78
65836;SHT30;52595;51.608;7.216;2023-07-20T05:45:13;14.80;99.99
65836;SHT30;52595;51.608;7.216;2023-07-20T05:47:39;14.60;99.54
65836;SHT30;52595;51.608;7.216;2023-07-20T05:50:04;14.64;99.99
65836;SHT30;52595;51.608;7.216;2023-07-20T05:52:30;14.67;99.99
65836;SHT30;52595;51.608;7.216;2023-07-20T05:54:55;14.67;99.99
65836;SHT30;52595;51.608;7.216;2023-07-20T05:57:21;14.69;99.99
65836;SHT30;52595;51.608;7.216;2023-07-20T05:59:46;14.76;98.81
65836;SHT30;52595;51.608;7.216;2023-07-20T06:02:12;14.91;97.56
65836;SHT30;52595;51.608;7.216;2023-07-20T06:04:39;15.05;97.11
65836;SHT30;52595;51.608;7.216;2023-07-20T06:07:04;15.34;96.55
65836;SHT30;52595;51.608;7.216;2023-07-20T06:09:30;15.49;95.55
65836;SHT30;52595;51.608;7.216;2023-07-20T06:11:55;15.77;95.06
65836;SHT30;52595;51.608;7.216;2023-07-20T06:14:21;15.92;93.40
65836;SHT30;52595;51.608;7.216;2023-07-20T06:16:47;15.90;92.49
65836;SHT30;52595;51.608;7.216;2023-07-20T06:19:12;15.98;93.29
65836;SHT30;52595;51.608;7.216;2023-07-20T06:21:38;16.12;93.19
65836;SHT30;52595;51.608;7.216;2023-07-20T06:24:04;15.93;92.33
65836;SHT30;52595;51.608;7.216;2023-07-20T06:26:30;15.89;92.55
65836;SHT30;52595;51.608;7.216;2023-07-20T06:28:56;15.92;92.99
65836;SHT30;52595;51.608;7.216;2023-07-20T06:31:21;16.03;92.14
65836;SHT30;52595;51.608;7.216;2023-07-20T06:33:47;16.14;91.11
65836;SHT30;52595;51.608;7.216;2023-07-20T06:36:12;16.46;91.37
65836;SHT30;52595;51.608;7.216;2023-07-20T06:38:38;16.71;89.32
65836;SHT30;52595;51.608;7.216;2023-07-20T06:41:03;16.78;88.74
65836;SHT30;52595;51.608;7.216;2023-07-20T06:43:29;16.81;89.09
65836;SHT30;52595;51.608;7.216;2023-07-20T06:45:54;16.98;87.44
65836;SHT30;52595;51.608;7.216;2023-07-20T06:48:20;17.07;88.04
65836;SHT30;52595;51.608;7.216;2023-07-20T06:50:46;16.98;86.83
65836;SHT30;52595;51.608;7.216;2023-07-20T06:53:11;16.91;87.71
65836;SHT30;52595;51.608;7.216;2023-07-20T06:55:36;16.60;88.00
65836;SHT30;52595;51.608;7.216;2023-07-20T06:58:02;16.40;88.54
65836;SHT30;52595;51.608;7.216;2023-07-20T07:00:28;16.20;88.38
65836;SHT30;52595;51.608;7.216;2023-07-20T07:02:53;16.03;89.35
65836;SHT30;52595;51.608;7.216;2023-07-20T07:05:19;16.00;89.90
65836;SHT30;52595;51.608;7.216;2023-07-20T07:07:44;15.98;90.17
65836;SHT30;52595;51.608;7.216;2023-07-20T07:10:10;15.93;90.29
65836;SHT30;52595;51.608;7.216;2023-07-20T07:12:35;16.00;90.73
65836;SHT30;52595;51.608;7.216;2023-07-20T07:15:04;15.95;90.56
65836;SHT30;52595;51.608;7.216;2023-07-20T07:17:31;16.08;90.35
65836;SHT30;52595;51.608;7.216;2023-07-20T07:19:58;16.20;89.93
65836;SHT30;52595;51.608;7.216;2023-07-20T07:22:23;16.22;89.50
65836;SHT30;52595;51.608;7.216;2023-07-20T07:24:49;16.22;89.89
65836;SHT30;52595;51.608;7.216;2023-07-20T07:27:15;16.26;89.61
65836;SHT30;52595;51.608;7.216;2023-07-20T07:29:43;16.30;89.76
65836;SHT30;52595;51.608;7.216;2023-07-20T07:32:10;16.36;89.34
65836;SHT30;52595;51.608;7.216;2023-07-20T07:34:36;16.39;89.15
65836;SHT30;52595;51.608;7.216;2023-07-20T07:37:02;16.29;88.30
65836;SHT30;52595;51.608;7.216;2023-07-20T07:39:31;16.22;89.05
65836;SHT30;52595;51.608;7.216;2023-07-20T07:41:56;16.32;87.72
65836;SHT30;52595;51.608;7.216;2023-07-20T07:44:22;16.60;87.99
65836;SHT30;52595;51.608;7.216;2023-07-20T07:46:48;16.91;86.73
65836;SHT30;52595;51.608;7.216;2023-07-20T07:49:14;17.07;84.87
65836;SHT30;52595;51.608;7.216;2023-07-20T07:51:39;17.55;85.71
65836;SHT30;52595;51.608;7.216;2023-07-20T07:54:05;17.32;81.31
65836;SHT30;52595;51.608;7.216;2023-07-20T07:56:30;17.38;82.84
65836;SHT30;52595;51.608;7.216;2023-07-20T07:58:56;17.25;81.42
65836;SHT30;52595;51.608;7.216;2023-07-20T08:01:21;17.48;81.43
65836;SHT30;52595;51.608;7.216;2023-07-20T08:03:47;17.70;79.73
65836;SHT30;52595;51.608;7.216;2023-07-20T08:06:15;17.89;80.08
65836;SHT30;52595;51.608;7.216;2023-07-20T08:08:41;17.86;78.50
65836;SHT30;52595;51.608;7.216;2023-07-20T08:11:07;18.14;79.49
65836;SHT30;52595;51.608;7.216;2023-07-20T08:13:34;18.50;79.70
65836;SHT30;52595;51.608;7.216;2023-07-20T08:15:59;18.67;77.27
65836;SHT30;52595;51.608;7.216;2023-07-20T08:18:24;18.94;78.04
65836;SHT30;52595;51.608;7.216;2023-07-20T08:20:50;19.02;77.45
65836;SHT30;52595;51.608;7.216;2023-07-20T08:23:15;18.61;76.65
65836;SHT30;52595;51.608;7.216;2023-07-20T08:25:41;18.81;79.21
65836;SHT30;52595;51.608;7.216;2023-07-20T08:28:15;19.04;75.76
65836;SHT30;52595;51.608;7.216;2023-07-20T08:30:45;18.72;72.59
65836;SHT30;52595;51.608;7.216;2023-07-20T08:33:13;18.88;73.17
65836;SHT30;52595;51.608;7.216;2023-07-20T08:35:38;19.12;71.67
65836;SHT30;52595;51.608;7.216;2023-07-20T08:38:04;19.43;71.12
65836;SHT30;52595;51.608;7.216;2023-07-20T08:40:33;20.04;71.75
65836;SHT30;52595;51.608;7.216;2023-07-20T08:42:59;19.96;72.81
65836;SHT30;52595;51.608;7.216;2023-07-20T08:45:28;19.38;72.90
65836;SHT30;52595;51.608;7.216;2023-07-20T08:47:56;18.65;75.64
65836;SHT30;52595;51.608;7.216;2023-07-20T08:50:22;18.34;76.99
65836;SHT30;52595;51.608;7.216;2023-07-20T08:52:53;18.13;76.77
65836;SHT30;52595;51.608;7.216;2023-07-20T08:55:20;18.02;77.64
65836;SHT30;52595;51.608;7.216;2023-07-20T08:57:49;17.89;75.17
65836;SHT30;52595;51.608;7.216;2023-07-20T09:00:16;17.87;75.45
65836;SHT30;52595;51.608;7.216;2023-07-20T09:02:45;18.18;74.97
65836;SHT30;52595;51.608;7.216;2023-07-20T09:05:11;18.60;72.92
65836;SHT30;52595;51.608;7.216;2023-07-20T09:07:40;18.99;70.87
65836;SHT30;52595;51.608;7.216;2023-07-20T09:10:06;19.30;70.17
65836;SHT30;52595;51.608;7.216;2023-07-20T09:12:39;19.42;71.09
65836;SHT30;52595;51.608;7.216;2023-07-20T09:15:06;19.46;71.09
65836;SHT30;52595;51.608;7.216;2023-07-20T09:17:34;19.06;71.21
65836;SHT30;52595;51.608;7.216;2023-07-20T09:20:04;18.96;73.09
65836;SHT30;52595;51.608;7.216;2023-07-20T09:22:33;18.30;74.69
65836;SHT30;52595;51.608;7.216;2023-07-20T09:24:59;18.03;75.92
65836;SHT30;52595;51.608;7.216;2023-07-20T09:27:42;18.03;75.62
65836;SHT30;52595;51.608;7.216;2023-07-20T09:30:08;18.07;75.44
65836;SHT30;52595;51.608;7.216;2023-07-20T09:35:06;18.53;73.85
65836;SHT30;52595;51.608;7.216;2023-07-20T09:37:33;18.68;67.84
65836;SHT30;52595;51.608;7.216;2023-07-20T09:39:59;18.74;65.99
65836;SHT30;52595;51.608;7.216;2023-07-20T09:42:25;19.04;68.24
65836;SHT30;52595;51.608;7.216;2023-07-20T09:44:52;19.12;68.19
65836;SHT30;52595;51.608;7.216;2023-07-20T09:47:22;19.35;67.50
65836;SHT30;52595;51.608;7.216;2023-07-20T09:49:48;19.40;66.11
65836;SHT30;52595;51.608;7.216;2023-07-20T09:52:15;19.55;66.69
65836;SHT30;52595;51.608;7.216;2023-07-20T09:54:44;19.79;65.32
65836;SHT30;52595;51.608;7.216;2023-07-20T09:57:11;19.90;65.87
65836;SHT30;52595;51.608;7.216;2023-07-20T09:59:39;19.63;65.12
65836;SHT30;52595;51.608;7.216;2023-07-20T10:02:12;19.23;66.32
65836;SHT30;52595;51.608;7.216;2023-07-20T10:04:43;19.20;65.24
65836;SHT30;52595;51.608;7.216;2023-07-20T10:07:13;19.32;65.39
65836;SHT30;52595;51.608;7.216;2023-07-20T10:09:40;19.38;64.81
65836;SHT30;52595;51.608;7.216;2023-07-20T10:12:07;19.74;65.32
65836;SHT30;52595;51.608;7.216;2023-07-20T10:14:36;19.97;64.13
65836;SHT30;52595;51.608;7.216;2023-07-20T10:17:05;20.25;64.78
65836;SHT30;52595;51.608;7.216;2023-07-20T10:19:43;20.43;62.53
65836;SHT30;52595;51.608;7.216;2023-07-20T10:22:36;20.63;62.61
65836;SHT30;52595;51.608;7.216;2023-07-20T10:25:02;20.61;61.70
65836;SHT30;52595;51.608;7.216;2023-07-20T10:27:30;20.56;62.06
65836;SHT30;52595;51.608;7.216;2023-07-20T10:29:57;20.86;60.89
65836;SHT30;52595;51.608;7.216;2023-07-20T10:32:24;21.18;61.27
65836;SHT30;52595;51.608;7.216;2023-07-20T10:34:51;21.25;59.84
65836;SHT30;52595;51.608;7.216;2023-07-20T10:37:45;21.59;59.82
65836;SHT30;52595;51.608;7.216;2023-07-20T10:40:34;20.72;60.22
65836;SHT30;52595;51.608;7.216;2023-07-20T10:43:07;20.75;59.73
65836;SHT30;52595;51.608;7.216;2023-07-20T10:45:52;20.72;60.69
65836;SHT30;52595;51.608;7.216;2023-07-20T10:48:22;21.09;61.45
65836;SHT30;52595;51.608;7.216;2023-07-20T10:51:13;20.91;59.64
65836;SHT30;52595;51.608;7.216;2023-07-20T10:53:40;21.28;61.06
65836;SHT30;52595;51.608;7.216;2023-07-20T10:56:19;21.43;59.73
65836;SHT30;52595;51.608;7.216;2023-07-20T10:58:45;21.18;59.36
65836;SHT30;52595;51.608;7.216;2023-07-20T11:01:15;20.88;59.62
65836;SHT30;52595;51.608;7.216;2023-07-20T11:03:41;21.00;60.65
65836;SHT30;52595;51.608;7.216;2023-07-20T11:09:10;21.45;58.66
65836;SHT30;52595;51.608;7.216;2023-07-20T11:11:47;22.11;59.48
65836;SHT30;52595;51.608;7.216;2023-07-20T11:14:25;22.72;56.05
65836;SHT30;52595;51.608;7.216;2023-07-20T11:16:52;23.64;55.03
65836;SHT30;52595;51.608;7.216;2023-07-20T11:19:24;23.45;53.43
65836;SHT30;52595;51.608;7.216;2023-07-20T11:21:51;23.23;54.08
65836;SHT30;52595;51.608;7.216;2023-07-20T11:24:17;24.75;51.75
65836;SHT30;52595;51.608;7.216;2023-07-20T11:26:48;25.10;49.12
65836;SHT30;52595;51.608;7.216;2023-07-20T11:29:16;25.43;49.92
65836;SHT30;52595;51.608;7.216;2023-07-20T11:31:43;25.85;48.12
65836;SHT30;52595;51.608;7.216;2023-07-20T11:34:14;24.93;49.25
65836;SHT30;52595;51.608;7.216;2023-07-20T11:36:40;25.80;48.14
65836;SHT30;52595;51.608;7.216;2023-07-20T11:39:10;25.78;46.62
65836;SHT30;52595;51.608;7.216;2023-07-20T11:41:36;25.66;47.01
65836;SHT30;52595;51.608;7.216;2023-07-20T11:44:06;25.51;46.89
65836;SHT30;52595;51.608;7.216;2023-07-20T11:46:33;25.80;46.49
65836;SHT30;52595;51.608;7.216;2023-07-20T11:49:00;26.38;44.47
65836;SHT30;52595;51.608;7.216;2023-07-20T11:51:31;26.66;42.50
65836;SHT30;52595;51.608;7.216;2023-07-20T11:53:58;25.81;45.45
65836;SHT30;52595;51.608;7.216;2023-07-20T11:56:25;26.05;45.97
65836;SHT30;52595;51.608;7.216;2023-07-20T11:58:54;25.49;46.92
65836;SHT30;52595;51.608;7.216;2023-07-20T12:01:20;26.92;43.86
65836;SHT30;52595;51.608;7.216;2023-07-20T12:03:48;27.46;44.78
65836;SHT30;52595;51.608;7.216;2023-07-20T12:06:13;27.19;45.25
65836;SHT30;52595;51.608;7.216;2023-07-20T12:08:43;27.16;45.91
65836;SHT30;52595;51.608;7.216;2023-07-20T12:11:08;26.62;45.24
65836;SHT30;52595;51.608;7.216;2023-07-20T12:13:43;27.29;43.23
65836;SHT30;52595;51.608;7.216;2023-07-20T12:16:14;27.11;43.49
65836;SHT30;52595;51.608;7.216;2023-07-20T12:18:43;26.31;43.77
65836;SHT30;52595;51.608;7.216;2023-07-20T12:21:09;26.56;45.10
65836;SHT30;52595;51.608;7.216;2023-07-20T12:23:37;27.02;42.67
65836;SHT30;52595;51.608;7.216;2023-07-20T12:26:03;28.18;41.25
65836;SHT30;52595;51.608;7.216;2023-07-20T12:28:31;29.82;39.99
65836;SHT30;52595;51.608;7.216;2023-07-20T12:30:56;30.65;38.41
65836;SHT30;52595;51.608;7.216;2023-07-20T12:33:22;29.44;40.24
65836;SHT30;52595;51.608;7.216;2023-07-20T12:35:48;29.54;40.90
65836;SHT30;52595;51.608;7.216;2023-07-20T12:38:13;27.61;42.72
65836;SHT30;52595;51.608;7.216;2023-07-20T12:40:39;27.77;44.56
65836;SHT30;52595;51.608;7.216;2023-07-20T12:43:05;26.68;45.28
65836;SHT30;52595;51.608;7.216;2023-07-20T12:45:32;24.62;48.59
65836;SHT30;52595;51.608;7.216;2023-07-20T12:47:57;26.65;46.33
65836;SHT30;52595;51.608;7.216;2023-07-20T12:50:23;28.31;43.82
65836;SHT30;52595;51.608;7.216;2023-07-20T12:52:48;29.61;41.19
65836;SHT30;52595;51.608;7.216;2023-07-20T12:55:14;29.24;41.25
65836;SHT30;52595;51.608;7.216;2023-07-20T12:57:40;29.10;39.91
65836;SHT30;52595;51.608;7.216;2023-07-20T13:00:08;29.43;40.19
65836;SHT30;52595;51.608;7.216;2023-07-20T13:02:35;29.24;39.84
65836;SHT30;52595;51.608;7.216;2023-07-20T13:05:01;27.62;41.35
65836;SHT30;52595;51.608;7.216;2023-07-20T13:07:31;27.85;42.87
65836;SHT30;52595;51.608;7.216;2023-07-20T13:09:57;28.44;39.70
65836;SHT30;52595;51.608;7.216;2023-07-20T13:12:24;28.79;39.01
65836;SHT30;52595;51.608;7.216;2023-07-20T13:14:50;29.55;39.85
65836;SHT30;52595;51.608;7.216;2023-07-20T13:17:15;30.31;38.63
65836;SHT30;52595;51.608;7.216;2023-07-20T13:19:40;28.95;40.04
65836;SHT30;52595;51.608;7.216;2023-07-20T13:22:06;28.79;39.83
65836;SHT30;52595;51.608;7.216;2023-07-20T13:24:31;29.51;39.07
65836;SHT30;52595;51.608;7.216;2023-07-20T13:26:56;27.30;41.93
65836;SHT30;52595;51.608;7.216;2023-07-20T13:29:23;25.87;44.50
65836;SHT30;52595;51.608;7.216;2023-07-20T13:31:49;27.13;43.40
65836;SHT30;52595;51.608;7.216;2023-07-20T13:34:14;28.56;40.96
65836;SHT30;52595;51.608;7.216;2023-07-20T13:36:39;28.12;40.67
65836;SHT30;52595;51.608;7.216;2023-07-20T13:39:05;27.77;41.37
65836;SHT30;52595;51.608;7.216;2023-07-20T13:41:31;28.42;41.00
65836;SHT30;52595;51.608;7.216;2023-07-20T13:43:57;27.84;42.06
65836;SHT30;52595;51.608;7.216;2023-07-20T13:46:23;28.38;42.18
65836;SHT30;52595;51.608;7.216;2023-07-20T13:48:48;29.35;40.92
65836;SHT30;52595;51.608;7.216;2023-07-20T13:51:14;28.11;40.55
65836;SHT30;52595;51.608;7.216;2023-07-20T13:53:39;27.95;41.29
65836;SHT30;52595;51.608;7.216;2023-07-20T13:56:06;28.02;41.41
65836;SHT30;52595;51.608;7.216;2023-07-20T13:58:32;28.56;41.40
65836;SHT30;52595;51.608;7.216;2023-07-20T14:00:57;27.40;42.31
65836;SHT30;52595;51.608;7.216;2023-07-20T14:03:23;26.38;43.52
65836;SHT30;52595;51.608;7.216;2023-07-20T14:05:50;25.24;45.88
65836;SHT30;52595;51.608;7.216;2023-07-20T14:08:15;24.68;48.02
65836;SHT30;52595;51.608;7.216;2023-07-20T14:10:41;24.31;48.49
65836;SHT30;52595;51.608;7.216;2023-07-20T14:13:06;26.09;46.65
65836;SHT30;52595;51.608;7.216;2023-07-20T14:15:34;27.34;42.95
65836;SHT30;52595;51.608;7.216;2023-07-20T14:18:00;28.67;41.94
65836;SHT30;52595;51.608;7.216;2023-07-20T14:20:25;28.35;42.45
65836;SHT30;52595;51.608;7.216;2023-07-20T14:22:50;27.97;42.54
65836;SHT30;52595;51.608;7.216;2023-07-20T14:25:16;27.19;43.76
65836;SHT30;52595;51.608;7.216;2023-07-20T14:27:41;26.29;45.65
65836;SHT30;52595;51.608;7.216;2023-07-20T14:30:07;25.40;46.01
65836;SHT30;52595;51.608;7.216;2023-07-20T14:32:34;25.30;47.13
65836;SHT30;52595;51.608;7.216;2023-07-20T14:34:59;26.39;45.17
65836;SHT30;52595;51.608;7.216;2023-07-20T14:37:25;27.74;43.48
65836;SHT30;52595;51.608;7.216;2023-07-20T14:39:50;27.55;43.35
65836;SHT30;52595;51.608;7.216;2023-07-20T14:42:18;28.22;42.98
65836;SHT30;52595;51.608;7.216;2023-07-20T14:44:44;27.88;43.76
65836;SHT30;52595;51.608;7.216;2023-07-20T14:47:09;27.44;43.82
65836;SHT30;52595;51.608;7.216;2023-07-20T14:49:34;26.68;44.56
65836;SHT30;52595;51.608;7.216;2023-07-20T14:52:00;25.47;47.50
65836;SHT30;52595;51.608;7.216;2023-07-20T14:54:25;24.98;48.70
65836;SHT30;52595;51.608;7.216;2023-07-20T14:56:51;24.52;48.92
65836;SHT30;52595;51.608;7.216;2023-07-20T14:59:19;24.47;49.29
65836;SHT30;52595;51.608;7.216;2023-07-20T15:01:45;24.45;49.50
65836;SHT30;52595;51.608;7.216;2023-07-20T15:04:11;24.13;49.85
65836;SHT30;52595;51.608;7.216;2023-07-20T15:06:37;24.35;49.58
65836;SHT30;52595;51.608;7.216;2023-07-20T15:09:02;24.42;49.56
65836;SHT30;52595;51.608;7.216;2023-07-20T15:11:29;25.07;48.27
65836;SHT30;52595;51.608;7.216;2023-07-20T15:13:54;26.00;47.10
65836;SHT30;52595;51.608;7.216;2023-07-20T15:16:20;25.94;46.21
65836;SHT30;52595;51.608;7.216;2023-07-20T15:18:45;27.43;43.26
65836;SHT30;52595;51.608;7.216;2023-07-20T15:21:11;28.57;41.85
65836;SHT30;52595;51.608;7.216;2023-07-20T15:23:37;27.09;43.27
65836;SHT30;52595;51.608;7.216;2023-07-20T15:26:02;25.88;45.20
65836;SHT30;52595;51.608;7.216;2023-07-20T15:28:27;25.53;46.26
65836;SHT30;52595;51.608;7.216;2023-07-20T15:31:03;25.37;46.74
65836;SHT30;52595;51.608;7.216;2023-07-20T15:33:29;24.85;47.62
65836;SHT30;52595;51.608;7.216;2023-07-20T15:35:55;25.87;45.71
65836;SHT30;52595;51.608;7.216;2023-07-20T15:38:20;26.60;44.92
65836;SHT30;52595;51.608;7.216;2023-07-20T15:40:46;25.81;46.08